createdAt,value
2023-05-03T00:02:11.024Z,6.00
2023-05-03T00:04:38.444Z,5.90
2023-05-03T00:07:05.535Z,6.00
2023-05-03T00:09:35.213Z,5.90
2023-05-03T00:12:02.859Z,5.80
2023-05-03T00:14:29.696Z,5.70
2023-05-03T00:16:56.838Z,5.80
2023-05-03T00:19:31.568Z,5.70
2023-05-03T00:22:02.383Z,5.70
2023-05-03T00:24:29.397Z,5.70
2023-05-03T00:26:56.337Z,5.60
2023-05-03T00:29:23.564Z,5.60
2023-05-03T00:31:50.711Z,5.60
2023-05-03T00:34:17.683Z,5.60
2023-05-03T00:36:44.858Z,5.60
2023-05-03T00:39:11.685Z,5.70
2023-05-03T00:41:39.485Z,5.50
2023-05-03T00:44:06.737Z,5.50
2023-05-03T00:46:34.272Z,5.50
2023-05-03T00:49:01.472Z,5.50
2023-05-03T00:51:28.917Z,5.40
2023-05-03T00:53:56.759Z,5.40
2023-05-03T00:56:24.940Z,5.40
2023-05-03T00:58:52.395Z,5.30
2023-05-03T01:01:20.289Z,5.40
2023-05-03T01:03:48.281Z,5.30
2023-05-03T01:06:32.720Z,5.30
2023-05-03T01:09:03.024Z,5.20
2023-05-03T01:11:51.003Z,5.10
2023-05-03T01:14:45.163Z,5.10
2023-05-03T01:17:15.906Z,5.20
2023-05-03T01:20:06.137Z,5.10
2023-05-03T01:22:49.980Z,5.10
2023-05-03T01:25:17.335Z,5.00
2023-05-03T01:27:44.197Z,5.00
2023-05-03T01:30:12.890Z,5.00
2023-05-03T01:33:01.512Z,5.00
2023-05-03T01:35:47.950Z,5.00
2023-05-03T01:38:16.535Z,5.00
2023-05-03T01:40:52.900Z,4.90
2023-05-03T01:43:21.385Z,4.90
2023-05-03T01:45:48.980Z,4.90
2023-05-03T01:48:18.808Z,4.80
2023-05-03T01:50:45.953Z,4.80
2023-05-03T01:53:13.010Z,4.80
2023-05-03T01:55:40.228Z,4.70
2023-05-03T01:58:07.779Z,4.70
2023-05-03T02:00:34.801Z,4.70
2023-05-03T02:03:01.588Z,4.70
2023-05-03T02:05:28.425Z,4.60
2023-05-03T02:07:58.079Z,4.70
2023-05-03T02:10:25.400Z,4.60
2023-05-03T02:12:52.366Z,4.60
2023-05-03T02:15:20.204Z,4.70
2023-05-03T02:17:49.948Z,4.60
2023-05-03T02:20:17.265Z,4.50
2023-05-03T02:22:44.200Z,4.50
2023-05-03T02:25:11.148Z,4.50
2023-05-03T02:27:37.925Z,4.50
2023-05-03T02:30:05.764Z,4.50
2023-05-03T02:32:33.711Z,4.50
2023-05-03T02:35:00.664Z,4.40
2023-05-03T02:37:27.678Z,4.40
2023-05-03T02:39:54.500Z,4.40
2023-05-03T02:42:21.275Z,4.30
2023-05-03T02:44:48.645Z,4.30
2023-05-03T02:47:16.208Z,4.30
2023-05-03T02:49:43.564Z,4.20
2023-05-03T02:52:10.817Z,4.20
2023-05-03T02:54:37.968Z,4.30
2023-05-03T02:57:07.499Z,4.40
2023-05-03T02:59:34.468Z,4.50
2023-05-03T03:02:01.761Z,4.50
2023-05-03T03:04:28.739Z,4.50
2023-05-03T03:06:56.847Z,4.50
2023-05-03T03:09:24.200Z,4.40
2023-05-03T03:11:52.958Z,4.40
2023-05-03T03:14:19.868Z,4.40
2023-05-03T03:16:46.712Z,4.40
2023-05-03T03:19:14.023Z,4.30
2023-05-03T03:21:40.924Z,4.40
2023-05-03T03:24:08.078Z,4.20
2023-05-03T03:26:36.235Z,4.20
2023-05-03T03:29:03.493Z,4.20
2023-05-03T03:31:31.158Z,4.10
2023-05-03T03:33:58.431Z,4.00
2023-05-03T03:36:25.699Z,4.00
2023-05-03T03:38:52.485Z,4.00
2023-05-03T03:41:21.855Z,4.00
2023-05-03T03:43:49.416Z,4.00
2023-05-03T03:46:17.114Z,4.00
2023-05-03T03:48:44.293Z,4.00
2023-05-03T03:51:11.585Z,4.00
2023-05-03T03:53:38.790Z,4.00
2023-05-03T03:56:06.175Z,3.90
2023-05-03T03:58:32.949Z,4.00
2023-05-03T04:01:00.819Z,4.00
2023-05-03T04:03:27.850Z,3.90
2023-05-03T04:05:57.881Z,3.90
2023-05-03T04:08:24.788Z,3.90
2023-05-03T04:10:57.379Z,3.80
2023-05-03T04:13:25.239Z,3.80
2023-05-03T04:15:58.035Z,3.80
2023-05-03T04:18:28.579Z,3.90
2023-05-03T04:20:55.720Z,3.90
2023-05-03T04:23:22.941Z,4.00
2023-05-03T04:25:50.115Z,4.00
2023-05-03T04:28:16.998Z,4.10
2023-05-03T04:30:47.968Z,4.10
2023-05-03T04:33:15.464Z,4.20
2023-05-03T04:35:42.660Z,4.40
2023-05-03T04:38:09.981Z,4.80
2023-05-03T04:40:37.609Z,5.20
2023-05-03T04:43:07.713Z,5.60
2023-05-03T04:45:35.360Z,7.90
2023-05-03T04:48:05.592Z,9.70
2023-05-03T04:50:33.685Z,11.00
2023-05-03T04:53:01.746Z,12.80
2023-05-03T04:55:28.547Z,13.80
2023-05-03T04:57:56.578Z,12.50
2023-05-03T05:00:24.074Z,13.80
2023-05-03T05:02:52.049Z,15.10
2023-05-03T05:05:21.914Z,13.50
2023-05-03T05:07:51.950Z,14.10
2023-05-03T05:10:19.373Z,13.50
2023-05-03T05:12:47.396Z,13.80
2023-05-03T05:15:15.601Z,14.50
2023-05-03T05:17:42.597Z,14.50
2023-05-03T05:20:13.431Z,15.40
2023-05-03T05:22:40.957Z,17.00
2023-05-03T05:25:09.315Z,16.80
2023-05-03T05:27:36.892Z,16.50
2023-05-03T05:30:04.780Z,17.00
2023-05-03T05:32:35.272Z,17.60
2023-05-03T05:35:02.169Z,18.20
2023-05-03T05:37:29.225Z,16.80
2023-05-03T05:39:56.678Z,18.30
2023-05-03T05:42:27.002Z,19.10
2023-05-03T05:44:57.239Z,18.90
2023-05-03T05:47:24.508Z,18.30
2023-05-03T05:49:51.553Z,19.10
2023-05-03T05:52:25.802Z,18.30
2023-05-03T05:54:55.871Z,18.50
2023-05-03T05:57:22.813Z,19.10
2023-05-03T05:59:54.158Z,19.20
2023-05-03T06:02:24.791Z,18.30
2023-05-03T06:04:54.331Z,18.50
2023-05-03T06:07:21.456Z,18.00
2023-05-03T06:09:48.824Z,16.10
2023-05-03T06:12:15.983Z,18.40
2023-05-03T06:14:55.453Z,19.50
2023-05-03T06:17:29.344Z,18.80
2023-05-03T06:19:56.462Z,18.60
2023-05-03T06:22:23.440Z,15.80
2023-05-03T06:24:50.857Z,16.20
2023-05-03T06:27:17.939Z,16.80
2023-05-03T06:29:45.106Z,15.00
2023-05-03T06:32:12.378Z,17.50
2023-05-03T06:34:39.321Z,17.80
2023-05-03T06:37:06.519Z,16.60
2023-05-03T06:39:33.755Z,17.60
2023-05-03T06:42:01.545Z,18.80
2023-05-03T06:44:28.328Z,18.30
2023-05-03T06:46:55.901Z,16.70
2023-05-03T06:49:22.924Z,17.10
2023-05-03T06:51:49.724Z,17.70
2023-05-03T06:54:16.771Z,17.50
2023-05-03T06:56:43.709Z,17.40
2023-05-03T06:59:10.776Z,17.20
2023-05-03T07:01:37.981Z,18.60
2023-05-03T07:04:05.147Z,19.20
2023-05-03T07:06:40.726Z,17.30
2023-05-03T07:09:11.865Z,16.30
2023-05-03T07:11:44.619Z,15.30
2023-05-03T07:14:12.153Z,16.80
2023-05-03T07:16:39.364Z,18.00
2023-05-03T07:19:06.770Z,16.30
2023-05-03T07:21:34.130Z,15.40
2023-05-03T07:24:12.879Z,12.80
2023-05-03T07:26:40.303Z,15.30
2023-05-03T07:29:07.694Z,15.70
2023-05-03T07:31:35.336Z,12.50
2023-05-03T07:34:03.190Z,14.00
2023-05-03T07:36:30.708Z,14.50
2023-05-03T07:38:58.735Z,14.40
2023-05-03T07:41:26.903Z,14.00
2023-05-03T07:43:59.411Z,13.00
2023-05-03T07:46:27.281Z,11.10
2023-05-03T07:48:54.495Z,10.20
2023-05-03T07:51:21.767Z,10.90
2023-05-03T07:53:48.836Z,10.40
2023-05-03T07:56:15.752Z,11.00
2023-05-03T07:58:43.810Z,10.90
2023-05-03T08:01:14.115Z,10.50
2023-05-03T08:03:41.935Z,9.70
2023-05-03T08:06:09.231Z,9.60
2023-05-03T08:08:36.676Z,9.50
2023-05-03T08:11:05.009Z,9.90
2023-05-03T08:13:32.085Z,9.50
2023-05-03T08:15:59.498Z,10.10
2023-05-03T08:18:28.830Z,9.70
2023-05-03T08:20:55.811Z,9.70
2023-05-03T08:23:23.077Z,9.20
2023-05-03T08:25:50.307Z,9.30
2023-05-03T08:28:17.095Z,9.50
2023-05-03T08:30:44.584Z,9.50
2023-05-03T08:33:11.863Z,9.50
2023-05-03T08:35:38.752Z,9.40
2023-05-03T08:38:06.604Z,9.80
2023-05-03T08:40:37.496Z,10.00
2023-05-03T08:43:10.219Z,9.60
2023-05-03T08:45:37.400Z,9.60
2023-05-03T08:48:04.855Z,9.80
2023-05-03T08:50:33.380Z,10.00
2023-05-03T08:53:00.728Z,9.80
2023-05-03T08:55:27.758Z,9.90
2023-05-03T08:57:54.869Z,10.10
2023-05-03T09:00:29.784Z,9.90
2023-05-03T09:02:56.917Z,10.20
2023-05-03T09:05:26.040Z,10.40
2023-05-03T09:08:10.693Z,10.50
2023-05-03T09:10:42.929Z,10.20
2023-05-03T09:13:19.566Z,10.50
2023-05-03T09:15:58.135Z,10.80
2023-05-03T09:18:25.703Z,10.80
2023-05-03T09:20:53.456Z,10.70
2023-05-03T09:23:31.622Z,10.70
2023-05-03T09:26:00.184Z,10.60
2023-05-03T09:28:27.504Z,10.60
2023-05-03T09:31:07.898Z,10.80
2023-05-03T09:33:37.755Z,10.80
2023-05-03T09:36:05.697Z,10.80
2023-05-03T09:38:35.505Z,10.80
2023-05-03T09:41:04.083Z,11.00
2023-05-03T09:43:31.359Z,10.60
2023-05-03T09:46:09.869Z,10.80
2023-05-03T09:48:38.022Z,10.80
2023-05-03T09:51:08.449Z,10.70
2023-05-03T09:53:36.860Z,10.90
2023-05-03T09:56:07.049Z,11.00
2023-05-03T09:58:35.590Z,10.70
2023-05-03T10:01:05.978Z,10.90
2023-05-03T10:03:47.619Z,10.60
2023-05-03T10:06:49.630Z,11.00
2023-05-03T10:09:21.992Z,11.30
2023-05-03T10:11:54.857Z,12.30
2023-05-03T10:14:22.132Z,12.90
2023-05-03T10:16:59.052Z,13.10
2023-05-03T10:19:29.806Z,13.10
2023-05-03T10:22:12.101Z,13.10
2023-05-03T10:25:02.595Z,12.90
2023-05-03T10:27:45.964Z,13.00
2023-05-03T10:30:28.948Z,12.80
2023-05-03T10:32:56.582Z,13.10
2023-05-03T10:35:27.352Z,13.90
2023-05-03T10:37:57.160Z,13.80
2023-05-03T10:40:24.363Z,13.10
2023-05-03T10:43:07.541Z,13.40
2023-05-03T10:45:34.930Z,13.20
2023-05-03T10:48:17.916Z,13.90
2023-05-03T10:50:44.802Z,13.40
2023-05-03T10:53:33.040Z,13.20
2023-05-03T10:56:13.923Z,13.10
2023-05-03T10:58:45.155Z,13.30
2023-05-03T11:01:14.031Z,13.30
2023-05-03T11:03:49.294Z,12.80
2023-05-03T11:06:51.456Z,12.90
2023-05-03T11:09:24.791Z,13.50
2023-05-03T11:12:08.711Z,13.10
2023-05-03T11:14:41.263Z,12.60
2023-05-03T11:17:08.616Z,12.30
2023-05-03T11:19:40.102Z,12.20
2023-05-03T11:22:10.412Z,12.20
2023-05-03T11:24:38.889Z,12.20
2023-05-03T11:27:08.003Z,12.20
2023-05-03T11:29:47.929Z,12.40
2023-05-03T11:32:16.306Z,12.20
2023-05-03T11:37:14.299Z,12.20
2023-05-03T11:39:42.780Z,12.10
2023-05-03T11:42:12.870Z,12.60
2023-05-03T11:44:43.209Z,12.30
2023-05-03T11:47:11.698Z,12.20
2023-05-03T11:49:41.475Z,12.30
2023-05-03T11:52:09.294Z,12.70
2023-05-03T11:54:37.154Z,13.10
2023-05-03T11:57:13.440Z,12.80
2023-05-03T11:59:44.411Z,12.60
2023-05-03T12:02:18.264Z,12.40
2023-05-03T12:04:52.446Z,12.70
2023-05-03T12:07:22.481Z,12.70
2023-05-03T12:10:06.785Z,12.60
2023-05-03T12:12:53.082Z,12.90
2023-05-03T12:15:36.890Z,12.90
2023-05-03T12:18:10.233Z,13.00
2023-05-03T12:23:10.476Z,12.90
2023-05-03T12:25:39.848Z,12.80
2023-05-03T12:28:19.481Z,13.00
2023-05-03T12:30:48.493Z,12.80
2023-05-03T12:33:16.998Z,13.10
2023-05-03T12:35:47.815Z,13.10
2023-05-03T12:38:17.549Z,13.20
2023-05-03T12:40:45.988Z,13.20
2023-05-03T12:43:14.791Z,13.30
2023-05-03T12:45:49.224Z,13.40
2023-05-03T12:48:31.819Z,13.00
2023-05-03T12:51:18.766Z,13.10
2023-05-03T12:53:48.157Z,13.10
2023-05-03T12:56:21.443Z,13.40
2023-05-03T12:59:17.955Z,13.80
2023-05-03T13:02:41.025Z,13.50
2023-05-03T13:07:00.271Z,13.50
2023-05-03T13:09:38.869Z,13.50
2023-05-03T13:12:18.144Z,13.80
2023-05-03T13:14:49.996Z,13.60
2023-05-03T13:17:19.666Z,13.70
2023-05-03T13:19:50.436Z,13.60
2023-05-03T13:22:20.800Z,13.60
2023-05-03T13:24:48.293Z,13.80
2023-05-03T13:27:18.341Z,13.80
2023-05-03T13:29:47.559Z,14.10
2023-05-03T13:32:16.434Z,14.00
2023-05-03T13:34:43.588Z,13.80
2023-05-03T13:37:11.907Z,14.00
2023-05-03T13:39:45.743Z,13.70
2023-05-03T13:42:12.841Z,14.00
2023-05-03T13:44:39.779Z,13.80
2023-05-03T13:47:10.152Z,13.90
2023-05-03T13:49:40.190Z,14.20
2023-05-03T13:52:07.581Z,13.90
2023-05-03T13:54:35.961Z,13.70
2023-05-03T13:57:02.720Z,13.90
2023-05-03T13:59:36.209Z,14.10
2023-05-03T14:02:03.230Z,13.80
2023-05-03T14:04:31.717Z,14.20
2023-05-03T14:07:00.412Z,13.90
2023-05-03T14:09:28.085Z,14.00
2023-05-03T14:11:57.461Z,14.20
2023-05-03T14:14:30.913Z,13.90
2023-05-03T14:16:58.259Z,14.10
2023-05-03T14:19:25.194Z,14.20
2023-05-03T14:21:59.302Z,14.60
2023-05-03T14:24:27.072Z,14.10
2023-05-03T14:26:54.781Z,14.00
2023-05-03T14:29:21.772Z,14.00
2023-05-03T14:31:48.824Z,14.00
2023-05-03T14:34:15.906Z,14.10
2023-05-03T14:36:45.803Z,14.20
2023-05-03T14:39:15.121Z,14.30
2023-05-03T14:41:45.586Z,14.30
2023-05-03T14:44:15.759Z,14.10
2023-05-03T14:46:42.886Z,14.00
2023-05-03T14:49:09.895Z,14.20
2023-05-03T14:51:36.940Z,14.30
2023-05-03T14:54:07.056Z,14.50
2023-05-03T14:56:34.317Z,14.50
2023-05-03T14:59:01.959Z,14.30
2023-05-03T15:01:29.932Z,14.40
2023-05-03T15:03:56.872Z,14.30
2023-05-03T15:06:29.788Z,14.40
2023-05-03T15:08:57.082Z,14.20
2023-05-03T15:11:24.192Z,14.20
2023-05-03T15:13:51.682Z,14.10
2023-05-03T15:16:19.365Z,14.20
2023-05-03T15:18:48.755Z,14.10
2023-05-03T15:21:20.674Z,14.10
2023-05-03T15:23:49.768Z,14.10
2023-05-03T15:26:17.147Z,14.40
2023-05-03T15:28:47.290Z,14.50
2023-05-03T15:31:18.080Z,14.50
2023-05-03T15:33:45.965Z,14.10
2023-05-03T15:36:14.270Z,14.20
2023-05-03T15:38:41.433Z,14.20
2023-05-03T15:41:11.412Z,14.40
2023-05-03T15:43:38.379Z,14.30
2023-05-03T15:46:08.767Z,14.20
2023-05-03T15:48:38.852Z,14.30
2023-05-03T15:51:11.087Z,14.10
2023-05-03T15:53:41.694Z,14.30
2023-05-03T15:56:12.313Z,14.40
2023-05-03T15:58:42.692Z,14.30
2023-05-03T16:01:09.609Z,14.30
2023-05-03T16:03:36.710Z,14.50
2023-05-03T16:06:04.080Z,14.50
2023-05-03T16:08:31.159Z,14.50
2023-05-03T16:11:04.243Z,14.30
2023-05-03T16:16:01.116Z,14.30
2023-05-03T16:18:32.164Z,14.50
2023-05-03T16:20:59.152Z,14.20
2023-05-03T16:23:26.325Z,14.20
2023-05-03T16:25:54.090Z,14.40
2023-05-03T16:28:22.018Z,14.30
2023-05-03T16:30:48.936Z,14.40
2023-05-03T16:33:16.065Z,14.30
2023-05-03T16:35:43.010Z,14.50
2023-05-03T16:38:09.988Z,14.40
2023-05-03T16:40:40.212Z,14.40
2023-05-03T16:43:07.624Z,14.40
2023-05-03T16:45:34.836Z,14.30
2023-05-03T16:48:04.506Z,14.30
2023-05-03T16:50:33.474Z,14.20
2023-05-03T16:53:00.423Z,14.20
2023-05-03T16:55:27.673Z,14.20
2023-05-03T16:57:54.526Z,14.20
2023-05-03T17:00:21.898Z,14.30
2023-05-03T17:02:49.212Z,14.20
2023-05-03T17:05:16.261Z,14.10
2023-05-03T17:07:43.302Z,14.00
2023-05-03T17:10:10.798Z,14.00
2023-05-03T17:12:37.691Z,14.10
2023-05-03T17:15:05.115Z,14.10
2023-05-03T17:17:35.497Z,14.00
2023-05-03T17:20:02.608Z,14.10
2023-05-03T17:22:29.685Z,14.00
2023-05-03T17:24:58.074Z,14.00
2023-05-03T17:27:24.908Z,13.90
2023-05-03T17:29:51.866Z,13.80
2023-05-03T17:32:19.216Z,13.80
2023-05-03T17:34:46.109Z,13.80
2023-05-03T17:37:13.153Z,13.80
2023-05-03T17:39:40.284Z,13.80
2023-05-03T17:42:08.065Z,13.80
2023-05-03T17:44:35.130Z,13.70
2023-05-03T17:47:02.578Z,13.70
2023-05-03T17:49:33.198Z,13.70
2023-05-03T17:52:00.454Z,13.70
2023-05-03T17:54:30.384Z,13.60
2023-05-03T17:56:58.232Z,13.50
2023-05-03T17:59:25.494Z,13.50
2023-05-03T18:01:53.191Z,13.40
2023-05-03T18:06:50.304Z,13.40
2023-05-03T18:09:17.463Z,13.30
2023-05-03T18:11:45.128Z,13.20
2023-05-03T18:14:12.370Z,13.20
2023-05-03T18:16:39.777Z,13.10
2023-05-03T18:19:07.194Z,13.10
2023-05-03T18:21:36.389Z,13.00
2023-05-03T18:24:03.889Z,13.00
2023-05-03T18:26:30.889Z,13.00
2023-05-03T18:28:58.112Z,12.90
2023-05-03T18:31:26.019Z,12.80
2023-05-03T18:33:52.894Z,12.80
2023-05-03T18:36:19.731Z,12.80
2023-05-03T18:38:47.712Z,12.70
2023-05-03T18:41:16.061Z,12.70
2023-05-03T18:43:43.784Z,12.60
2023-05-03T18:46:11.690Z,12.50
2023-05-03T18:48:38.908Z,12.40
2023-05-03T18:51:05.867Z,12.40
2023-05-03T18:53:34.563Z,12.30
2023-05-03T18:56:04.750Z,12.10
2023-05-03T18:58:32.790Z,12.10
2023-05-03T19:01:00.677Z,12.10
2023-05-03T19:03:31.035Z,12.10
2023-05-03T19:06:07.780Z,12.00
2023-05-03T19:08:38.439Z,11.90
2023-05-03T19:11:09.243Z,11.90
2023-05-03T19:13:36.832Z,11.80
2023-05-03T19:16:03.885Z,11.80
2023-05-03T19:18:33.487Z,11.80
2023-05-03T19:21:01.964Z,11.70
2023-05-03T19:23:29.048Z,11.50
2023-05-03T19:25:56.657Z,11.50
2023-05-03T19:28:24.235Z,11.40
2023-05-03T19:30:54.635Z,11.40
2023-05-03T19:33:21.781Z,11.30
2023-05-03T19:35:49.728Z,11.30
2023-05-03T19:38:16.575Z,11.20
2023-05-03T19:40:56.746Z,11.10
2023-05-03T19:43:23.838Z,11.10
2023-05-03T19:45:51.452Z,11.00
2023-05-03T19:48:19.138Z,10.90
2023-05-03T19:50:46.307Z,10.90
2023-05-03T19:53:13.283Z,10.80
2023-05-03T19:55:41.591Z,10.80
2023-05-03T19:58:08.657Z,10.80
2023-05-03T20:00:35.701Z,10.80
2023-05-03T20:03:02.844Z,10.70
2023-05-03T20:05:30.100Z,10.70
2023-05-03T20:07:57.030Z,10.60
2023-05-03T20:10:24.519Z,10.60
2023-05-03T20:12:51.740Z,10.50
2023-05-03T20:15:18.843Z,10.40
2023-05-03T20:17:45.867Z,10.40
2023-05-03T20:20:14.700Z,10.30
2023-05-03T20:22:41.846Z,10.30
2023-05-03T20:25:10.137Z,10.30
2023-05-03T20:27:37.142Z,10.20
2023-05-03T20:30:06.292Z,10.10
2023-05-03T20:32:36.955Z,10.00
2023-05-03T20:35:05.084Z,10.00
2023-05-03T20:37:32.266Z,9.90
2023-05-03T20:40:02.665Z,9.90
2023-05-03T20:42:33.085Z,9.90
2023-05-03T20:45:00.478Z,9.80
2023-05-03T20:47:28.358Z,9.90
2023-05-03T20:49:55.325Z,9.70
2023-05-03T20:52:22.103Z,9.70
2023-05-03T20:54:51.973Z,9.70
2023-05-03T20:57:18.859Z,9.70
2023-05-03T20:59:46.174Z,9.60
2023-05-03T21:02:13.363Z,9.50
2023-05-03T21:04:40.532Z,9.30
2023-05-03T21:07:09.690Z,9.20
2023-05-03T21:09:36.651Z,9.30
2023-05-03T21:12:04.080Z,9.30
2023-05-03T21:14:30.926Z,9.30
2023-05-03T21:16:58.070Z,9.30
2023-05-03T21:19:25.157Z,9.30
2023-05-03T21:21:52.746Z,9.20
2023-05-03T21:24:19.677Z,9.20
2023-05-03T21:26:46.884Z,9.10
2023-05-03T21:29:15.667Z,9.20
2023-05-03T21:31:43.018Z,9.20
2023-05-03T21:34:09.844Z,9.10
2023-05-03T21:36:37.066Z,9.00
2023-05-03T21:39:04.205Z,9.00
2023-05-03T21:41:35.027Z,9.00
2023-05-03T21:44:02.740Z,8.80
2023-05-03T21:46:29.868Z,8.70
2023-05-03T21:48:56.972Z,8.80
2023-05-03T21:51:24.972Z,8.80
2023-05-03T21:53:52.029Z,8.70
2023-05-03T21:56:18.885Z,8.60
2023-05-03T21:58:48.865Z,8.70
2023-05-03T22:01:21.862Z,8.60
2023-05-03T22:03:50.225Z,8.50
2023-05-03T22:06:18.037Z,8.60
2023-05-03T22:08:45.119Z,8.50
2023-05-03T22:11:12.615Z,8.40
2023-05-03T22:14:03.226Z,8.50
2023-05-03T22:16:31.652Z,8.30
2023-05-03T22:19:02.058Z,8.40
2023-05-03T22:21:31.667Z,8.30
2023-05-03T22:23:58.787Z,8.30
2023-05-03T22:26:25.953Z,8.30
2023-05-03T22:28:55.684Z,8.20
2023-05-03T22:31:22.709Z,8.20
2023-05-03T22:33:49.492Z,8.10
2023-05-03T22:36:17.209Z,8.10
2023-05-03T22:38:44.262Z,8.10
2023-05-03T22:41:15.231Z,8.10
2023-05-03T22:43:42.850Z,8.10
2023-05-03T22:46:09.696Z,8.20
2023-05-03T22:48:36.678Z,8.20
2023-05-03T22:51:03.832Z,8.10
2023-05-03T22:53:30.600Z,8.20
2023-05-03T22:56:05.763Z,8.20
2023-05-03T22:58:39.146Z,8.10
2023-05-03T23:01:12.847Z,8.00
2023-05-03T23:03:40.138Z,7.90
2023-05-03T23:06:07.414Z,7.80
2023-05-03T23:08:34.838Z,7.80
2023-05-03T23:11:01.954Z,7.80
2023-05-03T23:13:28.840Z,7.80
2023-05-03T23:15:56.167Z,7.70
2023-05-03T23:18:23.307Z,7.70
2023-05-03T23:20:50.656Z,7.60
2023-05-03T23:23:17.640Z,7.60
2023-05-03T23:25:44.390Z,7.60
2023-05-03T23:28:11.778Z,7.60
2023-05-03T23:30:43.968Z,7.50
2023-05-03T23:33:12.346Z,7.40
2023-05-03T23:35:42.941Z,7.40
2023-05-03T23:38:09.792Z,7.30
2023-05-03T23:40:36.770Z,7.30
2023-05-03T23:43:03.707Z,7.40
2023-05-03T23:45:30.461Z,7.30
2023-05-03T23:47:57.525Z,7.30
2023-05-03T23:50:24.704Z,7.30
2023-05-03T23:52:52.019Z,7.30
2023-05-03T23:55:19.082Z,7.30
2023-05-03T23:57:45.817Z,7.30
